createdAt,value
2016-05-05T00:00:17.367Z,0
2016-05-05T00:01:18.276Z,0
2016-05-05T00:02:17.717Z,0
2016-05-05T00:03:17.766Z,0
2016-05-05T00:04:17.706Z,0
2016-05-05T00:05:20.692Z,4
2016-05-05T00:06:19.102Z,4
2016-05-05T00:07:17.730Z,0
2016-05-05T00:08:18.122Z,0
2016-05-05T00:09:18.158Z,4
2016-05-05T00:10:17.488Z,4
2016-05-05T00:11:19.647Z,4
2016-05-05T00:12:19.024Z,4
2016-05-05T00:13:17.886Z,4
2016-05-05T00:14:18.077Z,4
2016-05-05T00:15:17.516Z,4
2016-05-05T00:16:18.894Z,4
2016-05-05T00:17:17.349Z,4
2016-05-05T00:18:17.713Z,4
2016-05-05T00:19:19.074Z,4
2016-05-05T00:20:17.702Z,4
2016-05-05T00:21:17.658Z,4
2016-05-05T00:22:17.457Z,4
2016-05-05T00:23:18.429Z,4
2016-05-05T00:24:17.869Z,4
2016-05-05T00:25:17.903Z,4
2016-05-05T00:26:19.062Z,4
2016-05-05T00:27:17.706Z,4
2016-05-05T00:28:17.504Z,4
2016-05-05T00:29:17.711Z,4
2016-05-05T00:30:17.994Z,4
2016-05-05T00:31:19.873Z,4
2016-05-05T00:32:17.453Z,4
2016-05-05T00:33:18.080Z,4
2016-05-05T00:34:17.412Z,0
2016-05-05T00:35:18.039Z,4
2016-05-05T00:36:17.261Z,4
2016-05-05T00:37:20.561Z,0
2016-05-05T00:38:18.735Z,4
2016-05-05T00:39:18.269Z,4
2016-05-05T00:40:17.615Z,4
2016-05-05T00:41:19.946Z,4
2016-05-05T00:42:18.011Z,0
2016-05-05T00:43:17.999Z,0
2016-05-05T00:44:18.047Z,4
2016-05-05T00:45:17.379Z,0
2016-05-05T00:46:17.787Z,4
2016-05-05T00:47:17.635Z,4
2016-05-05T00:48:17.183Z,4
2016-05-05T00:49:17.999Z,4
2016-05-05T00:50:17.376Z,4
2016-05-05T00:51:17.380Z,4
2016-05-05T00:52:17.210Z,4
2016-05-05T00:53:17.229Z,4
2016-05-05T00:54:18.168Z,4
2016-05-05T00:55:17.968Z,4
2016-05-05T00:56:17.830Z,4
2016-05-05T00:57:17.568Z,4
2016-05-05T00:58:17.602Z,4
2016-05-05T00:59:17.557Z,0
2016-05-05T01:00:17.762Z,0
2016-05-05T01:01:17.562Z,0
2016-05-05T01:02:17.753Z,0
2016-05-05T01:03:17.786Z,0
2016-05-05T01:04:17.226Z,0
2016-05-05T01:05:17.745Z,0
2016-05-05T01:06:17.592Z,0
2016-05-05T01:07:17.328Z,0
2016-05-05T01:08:17.331Z,0
2016-05-05T01:09:17.646Z,0
2016-05-05T01:10:17.336Z,0
2016-05-05T01:11:17.527Z,0
2016-05-05T01:12:17.513Z,0
2016-05-05T01:13:17.360Z,0
2016-05-05T01:14:17.707Z,0
2016-05-05T01:15:17.710Z,0
2016-05-05T01:16:17.369Z,0
2016-05-05T01:17:17.183Z,0
2016-05-05T01:18:16.983Z,0
2016-05-05T01:19:17.485Z,0
2016-05-05T01:20:17.332Z,0
2016-05-05T01:21:17.694Z,0
2016-05-05T01:22:17.713Z,0
2016-05-05T01:23:17.324Z,0
2016-05-05T01:24:17.218Z,0
2016-05-05T01:25:17.330Z,0
2016-05-05T01:26:17.693Z,0
2016-05-05T01:27:17.273Z,0
2016-05-05T01:28:17.151Z,0
2016-05-05T01:29:17.450Z,0
2016-05-05T01:30:17.859Z,0
2016-05-05T01:31:17.659Z,0
2016-05-05T01:32:17.709Z,0
2016-05-05T01:33:17.648Z,0
2016-05-05T01:34:17.089Z,0
2016-05-05T01:35:17.451Z,0
2016-05-05T01:36:17.688Z,0
2016-05-05T01:37:17.534Z,0
2016-05-05T01:38:17.443Z,0
2016-05-05T01:39:17.633Z,0
2016-05-05T01:40:17.230Z,0
2016-05-05T01:41:17.420Z,0
2016-05-05T01:42:17.470Z,0
2016-05-05T01:43:17.410Z,0
2016-05-05T01:44:17.616Z,0
2016-05-05T01:45:17.416Z,0
2016-05-05T01:46:17.246Z,0
2016-05-05T01:47:17.201Z,0
2016-05-05T01:48:17.438Z,0
2016-05-05T01:49:17.238Z,0
2016-05-05T01:50:17.382Z,0
2016-05-05T01:51:17.385Z,0
2016-05-05T01:52:16.986Z,0
2016-05-05T01:53:17.484Z,0
2016-05-05T01:54:17.296Z,0
2016-05-05T01:55:17.731Z,0
2016-05-05T01:56:17.761Z,0
2016-05-05T01:57:17.574Z,0
2016-05-05T01:58:17.436Z,0
2016-05-05T01:59:17.813Z,0
2016-05-05T02:00:17.659Z,0
2016-05-05T02:01:17.491Z,0
2016-05-05T02:02:17.847Z,0
2016-05-05T02:03:17.622Z,0
2016-05-05T02:04:17.848Z,0
2016-05-05T02:05:17.623Z,0
2016-05-05T02:06:17.725Z,0
2016-05-05T02:07:17.840Z,0
2016-05-05T02:08:17.627Z,0
2016-05-05T02:09:17.850Z,0
2016-05-05T02:10:17.448Z,0
2016-05-05T02:11:17.624Z,0
2016-05-05T02:12:17.629Z,0
2016-05-05T02:13:17.414Z,0
2016-05-05T02:14:18.041Z,0
2016-05-05T02:15:17.828Z,0
2016-05-05T02:16:17.611Z,0
2016-05-05T02:17:17.818Z,0
2016-05-05T02:18:17.821Z,0
2016-05-05T02:19:17.808Z,0
2016-05-05T02:20:17.108Z,0
2016-05-05T02:21:17.799Z,0
2016-05-05T02:22:17.631Z,0
2016-05-05T02:23:17.588Z,0
2016-05-05T02:24:17.246Z,0
2016-05-05T02:25:17.796Z,0
2016-05-05T02:26:17.564Z,0
2016-05-05T02:27:17.567Z,0
2016-05-05T02:28:17.585Z,0
2016-05-05T02:29:17.963Z,0
2016-05-05T02:30:17.216Z,0
2016-05-05T02:31:17.609Z,0
2016-05-05T02:32:17.346Z,0
2016-05-05T02:33:17.536Z,0
2016-05-05T02:34:17.586Z,0
2016-05-05T02:35:17.339Z,0
2016-05-05T02:36:17.325Z,0
2016-05-05T02:37:17.734Z,0
2016-05-05T02:38:17.722Z,0
2016-05-05T02:39:18.334Z,0
2016-05-05T02:40:17.915Z,0
2016-05-05T02:41:17.511Z,0
2016-05-05T02:42:17.701Z,0
2016-05-05T02:43:17.922Z,0
2016-05-05T02:44:17.332Z,0
2016-05-05T02:45:17.475Z,0
2016-05-05T02:46:17.696Z,0
2016-05-05T02:47:17.480Z,0
2016-05-05T02:48:17.358Z,0
2016-05-05T02:49:17.516Z,0
2016-05-05T02:50:17.458Z,0
2016-05-05T02:51:17.507Z,0
2016-05-05T02:52:17.463Z,0
2016-05-05T02:53:17.652Z,0
2016-05-05T02:54:17.843Z,0
2016-05-05T02:55:16.877Z,0
2016-05-05T02:56:17.443Z,0
2016-05-05T02:57:17.835Z,0
2016-05-05T02:58:17.073Z,0
2016-05-05T02:59:17.279Z,0
2016-05-05T03:00:17.469Z,0
2016-05-05T03:01:17.409Z,0
2016-05-05T03:02:17.615Z,0
2016-05-05T03:03:17.211Z,0
2016-05-05T03:04:17.198Z,0
2016-05-05T03:05:17.420Z,0
2016-05-05T03:06:17.594Z,0
2016-05-05T03:07:17.784Z,0
2016-05-05T03:08:17.584Z,0
2016-05-05T03:09:17.446Z,0
2016-05-05T03:10:17.558Z,0
2016-05-05T03:11:17.216Z,0
2016-05-05T03:12:17.406Z,0
2016-05-05T03:13:17.394Z,0
2016-05-05T03:14:17.600Z,0
2016-05-05T03:15:17.743Z,0
2016-05-05T03:16:17.371Z,0
2016-05-05T03:17:17.327Z,0
2016-05-05T03:18:17.330Z,0
2016-05-05T03:19:17.708Z,0
2016-05-05T03:20:17.522Z,0
2016-05-05T03:21:17.352Z,0
2016-05-05T03:22:17.293Z,0
2016-05-05T03:23:17.499Z,0
2016-05-05T03:24:17.299Z,0
2016-05-05T03:25:17.708Z,0
2016-05-05T03:26:16.913Z,0
2016-05-05T03:27:17.276Z,0
2016-05-05T03:28:17.465Z,0
2016-05-05T03:29:17.110Z,0
2016-05-05T03:30:17.455Z,0
2016-05-05T03:31:17.254Z,0
2016-05-05T03:32:17.085Z,0
2016-05-05T03:33:16.932Z,0
2016-05-05T03:34:17.263Z,0
2016-05-05T03:35:17.423Z,0
2016-05-05T03:36:17.425Z,0
2016-05-05T03:37:17.053Z,0
2016-05-05T03:38:17.056Z,0
2016-05-05T03:39:17.417Z,0
2016-05-05T03:40:17.404Z,0
2016-05-05T03:41:17.188Z,0
2016-05-05T03:42:17.394Z,0
2016-05-05T03:43:17.600Z,0
2016-05-05T03:44:17.181Z,0
2016-05-05T03:45:17.167Z,0
2016-05-05T03:46:17.170Z,0
2016-05-05T03:47:17.001Z,0
2016-05-05T03:48:16.958Z,0
2016-05-05T03:49:17.553Z,0
2016-05-05T03:50:17.149Z,0
2016-05-05T03:51:16.777Z,0
2016-05-05T03:52:17.171Z,0
2016-05-05T03:53:17.532Z,0
2016-05-05T03:54:17.394Z,0
2016-05-05T03:55:17.319Z,0
2016-05-05T03:56:17.104Z,0
2016-05-05T03:57:17.294Z,0
2016-05-05T03:58:17.093Z,0
2016-05-05T03:59:17.487Z,0
2016-05-05T04:00:17.082Z,0
2016-05-05T04:01:17.085Z,0
2016-05-05T04:02:16.916Z,0
2016-05-05T04:03:17.278Z,0
2016-05-05T04:04:17.062Z,4
2016-05-05T04:05:17.049Z,4
2016-05-05T04:06:17.052Z,0
2016-05-05T04:07:17.055Z,0
2016-05-05T04:08:16.823Z,0
2016-05-05T04:09:17.545Z,0
2016-05-05T04:10:17.078Z,0
2016-05-05T04:11:16.831Z,0
2016-05-05T04:12:17.209Z,0
2016-05-05T04:13:17.009Z,0
2016-05-05T04:14:17.214Z,0
2016-05-05T04:15:16.998Z,0
2016-05-05T04:16:17.001Z,4
2016-05-05T04:17:16.973Z,4
2016-05-05T04:18:17.022Z,4
2016-05-05T04:19:16.556Z,0
2016-05-05T04:20:17.011Z,0
2016-05-05T04:21:16.967Z,0
2016-05-05T04:22:17.158Z,0
2016-05-05T04:23:17.347Z,0
2016-05-05T04:24:18.382Z,4
2016-05-05T04:25:16.932Z,4
2016-05-05T04:26:17.325Z,4
2016-05-05T04:27:16.531Z,4
2016-05-05T04:28:16.908Z,0
2016-05-05T04:29:16.708Z,0
2016-05-05T04:30:16.695Z,0
2016-05-05T04:31:16.385Z,0
2016-05-05T04:32:16.888Z,0
2016-05-05T04:33:16.328Z,0
2016-05-05T04:34:16.502Z,4
2016-05-05T04:35:16.864Z,4
2016-05-05T04:36:16.915Z,4
2016-05-05T04:37:16.667Z,0
2016-05-05T04:38:17.045Z,0
2016-05-05T04:39:17.298Z,4
2016-05-05T04:40:17.081Z,4
2016-05-05T04:41:17.068Z,4
2016-05-05T04:42:16.618Z,4
2016-05-05T04:43:17.214Z,0
2016-05-05T04:44:16.529Z,0
2016-05-05T04:45:16.595Z,0
2016-05-05T04:46:16.864Z,4
2016-05-05T04:47:16.991Z,4
2016-05-05T04:48:17.180Z,4
2016-05-05T04:49:16.575Z,4
2016-05-05T04:50:16.577Z,4
2016-05-05T04:51:16.814Z,0
2016-05-05T04:52:16.597Z,0
2016-05-05T04:53:16.945Z,4
2016-05-05T04:54:16.603Z,4
2016-05-05T04:55:16.574Z,4
2016-05-05T04:56:16.719Z,4
2016-05-05T04:57:16.361Z,4
2016-05-05T04:58:16.504Z,4
2016-05-05T04:59:15.977Z,4
2016-05-05T05:00:16.901Z,4
2016-05-05T05:01:17.107Z,4
2016-05-05T05:02:17.094Z,0
2016-05-05T05:03:16.877Z,4
2016-05-05T05:04:16.879Z,4
2016-05-05T05:05:16.914Z,4
2016-05-05T05:06:16.668Z,4
2016-05-05T05:07:16.857Z,4
2016-05-05T05:08:16.688Z,4
2016-05-05T05:09:17.346Z,4
2016-05-05T05:10:16.646Z,4
2016-05-05T05:11:16.633Z,4
2016-05-05T05:12:16.262Z,4
2016-05-05T05:13:16.826Z,4
2016-05-05T05:14:16.595Z,4
2016-05-05T05:15:16.801Z,4
2016-05-05T05:16:16.787Z,4
2016-05-05T05:17:16.586Z,4
2016-05-05T05:18:16.792Z,4
2016-05-05T05:19:16.764Z,4
2016-05-05T05:20:16.189Z,4
2016-05-05T05:21:16.551Z,4
2016-05-05T05:22:16.756Z,8
2016-05-05T05:23:16.744Z,4
2016-05-05T05:24:16.419Z,4
2016-05-05T05:25:16.733Z,4
2016-05-05T05:26:16.533Z,8
2016-05-05T05:27:16.519Z,4
2016-05-05T05:28:16.210Z,4
2016-05-05T05:29:16.510Z,4
2016-05-05T05:30:16.685Z,4
2016-05-05T05:31:16.468Z,4
2016-05-05T05:32:16.705Z,4
2016-05-05T05:33:16.271Z,8
2016-05-05T05:34:16.507Z,4
2016-05-05T05:35:16.682Z,4
2016-05-05T05:36:16.091Z,4
2016-05-05T05:37:15.921Z,4
2016-05-05T05:38:16.440Z,4
2016-05-05T05:39:16.631Z,4
2016-05-05T05:40:16.212Z,4
2016-05-05T05:41:16.307Z,4
2016-05-05T05:42:16.217Z,8
2016-05-05T05:43:16.594Z,8
2016-05-05T05:44:16.409Z,8
2016-05-05T05:45:16.600Z,8
2016-05-05T05:46:15.962Z,4
2016-05-05T05:47:15.980Z,4
2016-05-05T05:48:16.655Z,4
2016-05-05T05:49:16.783Z,8
2016-05-05T05:50:16.363Z,8
2016-05-05T05:51:16.538Z,8
2016-05-05T05:52:16.134Z,8
2016-05-05T05:53:16.527Z,8
2016-05-05T05:54:16.342Z,4
2016-05-05T05:55:16.111Z,4
2016-05-05T05:56:16.707Z,4
2016-05-05T05:57:16.100Z,8
2016-05-05T05:58:16.557Z,4
2016-05-05T05:59:16.685Z,8
2016-05-05T06:00:16.483Z,8
2016-05-05T06:01:16.486Z,8
2016-05-05T06:02:15.910Z,8
2016-05-05T06:03:16.148Z,8
2016-05-05T06:04:16.276Z,4
2016-05-05T06:05:16.247Z,8
2016-05-05T06:06:16.032Z,8
2016-05-05T06:07:15.877Z,8
2016-05-05T06:08:16.426Z,8
2016-05-05T06:09:16.117Z,8
2016-05-05T06:10:15.855Z,8
2016-05-05T06:11:16.404Z,8
2016-05-05T06:12:16.203Z,8
2016-05-05T06:13:15.784Z,4
2016-05-05T06:14:16.381Z,8
2016-05-05T06:15:16.023Z,8
2016-05-05T06:16:15.964Z,8
2016-05-05T06:17:16.201Z,8
2016-05-05T06:18:16.172Z,8
2016-05-05T06:19:16.363Z,8
2016-05-05T06:20:15.944Z,8
2016-05-05T06:21:15.994Z,8
2016-05-05T06:22:16.152Z,8
2016-05-05T06:23:15.946Z,8
2016-05-05T06:24:16.105Z,12
2016-05-05T06:25:15.904Z,8
2016-05-05T06:26:15.689Z,8
2016-05-05T06:27:15.879Z,12
2016-05-05T06:28:16.084Z,12
2016-05-05T06:29:16.290Z,12
2016-05-05T06:30:15.918Z,12
2016-05-05T06:31:15.905Z,12
2016-05-05T06:32:16.065Z,12
2016-05-05T06:33:16.457Z,12
2016-05-05T06:34:16.460Z,12
2016-05-05T06:35:16.259Z,12
2016-05-05T06:36:16.434Z,12
2016-05-05T06:37:16.234Z,12
2016-05-05T06:38:16.017Z,12
2016-05-05T06:39:16.739Z,12
2016-05-05T06:40:15.648Z,12
2016-05-05T06:41:15.634Z,12
2016-05-05T06:42:16.201Z,16
2016-05-05T06:43:16.250Z,16
2016-05-05T06:44:16.190Z,12
2016-05-05T06:45:16.005Z,16
2016-05-05T06:46:16.164Z,16
2016-05-05T06:47:16.151Z,16
2016-05-05T06:48:15.794Z,12
2016-05-05T06:49:15.797Z,16
2016-05-05T06:50:15.988Z,12
2016-05-05T06:51:15.943Z,16
2016-05-05T06:52:15.930Z,16
2016-05-05T06:53:15.964Z,12
2016-05-05T06:54:16.280Z,16
2016-05-05T06:55:15.954Z,16
2016-05-05T06:56:16.113Z,16
2016-05-05T06:57:16.147Z,12
2016-05-05T06:58:15.587Z,16
2016-05-05T06:59:15.871Z,16
2016-05-05T07:00:15.748Z,16
2016-05-05T07:01:15.877Z,16
2016-05-05T07:02:15.645Z,12
2016-05-05T07:03:15.851Z,16
2016-05-05T07:04:15.697Z,16
2016-05-05T07:05:16.247Z,16
2016-05-05T07:06:15.827Z,16
2016-05-05T07:07:15.830Z,16
2016-05-05T07:08:15.707Z,16
2016-05-05T07:09:15.726Z,16
2016-05-05T07:10:15.854Z,16
2016-05-05T07:11:15.247Z,16
2016-05-05T07:12:15.593Z,16
2016-05-05T07:13:15.846Z,16
2016-05-05T07:14:15.787Z,16
2016-05-05T07:15:15.867Z,16
2016-05-05T07:16:15.572Z,16
2016-05-05T07:17:16.170Z,16
2016-05-05T07:18:15.594Z,16
2016-05-05T07:19:15.237Z,16
2016-05-05T07:20:15.583Z,16
2016-05-05T07:21:15.805Z,20
2016-05-05T07:22:15.542Z,16
2016-05-05T07:23:15.732Z,16
2016-05-05T07:24:15.688Z,20
2016-05-05T07:25:15.503Z,20
2016-05-05T07:26:15.397Z,20
2016-05-05T07:27:16.102Z,16
2016-05-05T07:28:16.105Z,16
2016-05-05T07:29:15.905Z,16
2016-05-05T07:30:15.689Z,16
2016-05-05T07:31:16.098Z,16
2016-05-05T07:32:15.272Z,20
2016-05-05T07:33:15.854Z,20
2016-05-05T07:34:15.699Z,20
2016-05-05T07:35:15.859Z,16
2016-05-05T07:36:15.846Z,20
2016-05-05T07:37:15.676Z,16
2016-05-05T07:38:15.632Z,16
2016-05-05T07:39:15.775Z,16
2016-05-05T07:40:16.029Z,16
2016-05-05T07:41:15.406Z,16
2016-05-05T07:42:16.017Z,20
2016-05-05T07:43:15.615Z,16
2016-05-05T07:44:15.804Z,20
2016-05-05T07:45:15.229Z,20
2016-05-05T07:46:15.591Z,20
2016-05-05T07:47:15.375Z,20
2016-05-05T07:48:15.815Z,16
2016-05-05T07:49:15.208Z,20
2016-05-05T07:50:15.556Z,20
2016-05-05T07:51:15.573Z,16
2016-05-05T07:52:15.183Z,20
2016-05-05T07:53:15.328Z,20
2016-05-05T07:54:15.347Z,20
2016-05-05T07:55:15.521Z,20
2016-05-05T07:56:15.727Z,20
2016-05-05T07:57:15.321Z,20
2016-05-05T07:58:15.764Z,16
2016-05-05T07:59:15.767Z,20
2016-05-05T08:00:15.486Z,20
2016-05-05T08:01:15.710Z,20
2016-05-05T08:02:15.319Z,20
2016-05-05T08:03:15.477Z,20
2016-05-05T08:04:15.480Z,16
2016-05-05T08:05:15.468Z,16
2016-05-05T08:06:15.268Z,20
2016-05-05T08:07:15.458Z,20
2016-05-05T08:08:14.898Z,20
2016-05-05T08:09:15.384Z,20
2016-05-05T08:10:15.279Z,20
2016-05-05T08:11:15.437Z,20
2016-05-05T08:12:15.831Z,20
2016-05-05T08:13:15.286Z,20
2016-05-05T08:14:15.632Z,16
2016-05-05T08:15:15.073Z,20
2016-05-05T08:16:15.607Z,20
2016-05-05T08:17:15.250Z,20
2016-05-05T08:18:15.189Z,20
2016-05-05T08:19:15.240Z,20
2016-05-05T08:20:17.214Z,16
2016-05-05T08:21:15.573Z,20
2016-05-05T08:22:15.779Z,20
2016-05-05T08:23:15.423Z,28
2016-05-05T08:24:15.378Z,32
2016-05-05T08:25:17.024Z,32
2016-05-05T08:26:15.180Z,32
2016-05-05T08:27:15.136Z,32
2016-05-05T08:28:15.389Z,32
2016-05-05T08:29:15.736Z,28
2016-05-05T08:30:15.582Z,28
2016-05-05T08:31:14.803Z,32
2016-05-05T08:32:15.510Z,28
2016-05-05T08:33:15.715Z,32
2016-05-05T08:34:15.296Z,28
2016-05-05T08:35:15.080Z,32
2016-05-05T08:36:15.285Z,32
2016-05-05T08:37:15.491Z,32
2016-05-05T08:38:15.166Z,28
2016-05-05T08:39:16.543Z,32
2016-05-05T08:40:15.671Z,32
2016-05-05T08:41:15.658Z,28
2016-05-05T08:42:15.301Z,28
2016-05-05T08:43:15.664Z,28
2016-05-05T08:44:15.245Z,28
2016-05-05T08:45:15.028Z,28
2016-05-05T08:46:15.235Z,28
2016-05-05T08:47:15.456Z,28
2016-05-05T08:48:15.270Z,28
2016-05-05T08:49:15.617Z,28
2016-05-05T08:50:15.026Z,24
2016-05-05T08:51:14.639Z,28
2016-05-05T08:52:15.234Z,28
2016-05-05T08:53:14.831Z,28
2016-05-05T08:54:15.600Z,28
2016-05-05T08:55:15.180Z,28
2016-05-05T08:56:15.167Z,28
2016-05-05T08:57:15.170Z,28
2016-05-05T08:58:15.361Z,24
2016-05-05T08:59:14.988Z,28
2016-05-05T09:00:14.959Z,28
2016-05-05T09:01:15.369Z,28
2016-05-05T09:02:14.794Z,32
2016-05-05T09:03:15.545Z,28
2016-05-05T09:04:14.783Z,28
2016-05-05T09:05:14.973Z,24
2016-05-05T09:06:14.772Z,28
2016-05-05T09:07:15.321Z,28
2016-05-05T09:08:15.324Z,28
2016-05-05T09:09:15.374Z,24
2016-05-05T09:10:14.955Z,24
2016-05-05T09:11:15.473Z,24
2016-05-05T09:12:14.945Z,28
2016-05-05T09:13:14.885Z,28
2016-05-05T09:14:15.091Z,28
2016-05-05T09:15:15.328Z,28
2016-05-05T09:16:15.284Z,28
2016-05-05T09:17:15.084Z,28
2016-05-05T09:18:15.462Z,28
2016-05-05T09:19:14.853Z,28
2016-05-05T09:20:15.467Z,32
2016-05-05T09:21:15.141Z,32
2016-05-05T09:22:14.675Z,32
2016-05-05T09:23:15.100Z,28
2016-05-05T09:24:15.086Z,28
2016-05-05T09:25:15.448Z,32
2016-05-05T09:26:14.872Z,32
2016-05-05T09:27:14.923Z,32
2016-05-05T09:28:15.425Z,32
2016-05-05T09:29:14.834Z,28
2016-05-05T09:30:15.307Z,28
2016-05-05T09:31:15.221Z,32
2016-05-05T09:32:14.820Z,32
2016-05-05T09:33:14.916Z,32
2016-05-05T09:34:15.184Z,28
2016-05-05T09:35:15.186Z,28
2016-05-05T09:36:15.033Z,28
2016-05-05T09:37:14.817Z,32
2016-05-05T09:38:15.179Z,28
2016-05-05T09:39:14.634Z,28
2016-05-05T09:40:14.700Z,28
2016-05-05T09:41:14.452Z,24
2016-05-05T09:42:14.960Z,28
2016-05-05T09:43:15.343Z,28
2016-05-05T09:44:14.737Z,28
2016-05-05T09:45:14.942Z,28
2016-05-05T09:46:14.944Z,28
2016-05-05T09:47:14.838Z,28
2016-05-05T09:48:15.231Z,28
2016-05-05T09:49:14.984Z,28
2016-05-05T09:50:15.221Z,28
2016-05-05T09:51:15.114Z,28
2016-05-05T09:52:14.508Z,28
2016-05-05T09:53:14.729Z,28
2016-05-05T09:54:15.653Z,28
2016-05-05T09:55:14.922Z,16
2016-05-05T09:56:15.112Z,16
2016-05-05T09:57:15.099Z,20
2016-05-05T09:58:15.086Z,20
2016-05-05T09:59:14.777Z,16
2016-05-05T10:00:15.076Z,16
2016-05-05T10:01:14.875Z,16
2016-05-05T10:02:15.128Z,20
2016-05-05T10:03:15.068Z,20
2016-05-05T10:04:14.462Z,16
2016-05-05T10:05:14.854Z,16
2016-05-05T10:06:14.545Z,24
2016-05-05T10:07:15.251Z,20
2016-05-05T10:08:15.051Z,20
2016-05-05T10:09:15.178Z,24
2016-05-05T10:10:16.665Z,24
2016-05-05T10:11:14.918Z,20
2016-05-05T10:12:15.045Z,20
2016-05-05T10:13:14.674Z,24
2016-05-05T10:14:14.817Z,24
2016-05-05T10:15:14.616Z,20
2016-05-05T10:16:15.026Z,24
2016-05-05T10:17:14.653Z,24
2016-05-05T10:18:14.280Z,24
2016-05-05T10:19:14.987Z,24
2016-05-05T10:20:14.536Z,20
2016-05-05T10:21:14.788Z,20
2016-05-05T10:22:14.792Z,20
2016-05-05T10:23:14.981Z,24
2016-05-05T10:24:14.859Z,24
2016-05-05T10:25:15.033Z,24
2016-05-05T10:26:15.161Z,24
2016-05-05T10:27:14.805Z,24
2016-05-05T10:28:15.464Z,24
2016-05-05T10:29:14.950Z,24
2016-05-05T10:30:14.938Z,24
2016-05-05T10:31:14.987Z,24
2016-05-05T10:32:14.755Z,24
2016-05-05T10:33:14.931Z,24
2016-05-05T10:34:14.761Z,24
2016-05-05T10:35:14.592Z,24
2016-05-05T10:36:14.516Z,28
2016-05-05T10:37:14.566Z,24
2016-05-05T10:38:14.913Z,24
2016-05-05T10:39:14.509Z,24
2016-05-05T10:40:14.871Z,24
2016-05-05T10:41:14.686Z,24
2016-05-05T10:42:14.376Z,24
2016-05-05T10:43:14.895Z,24
2016-05-05T10:44:14.523Z,24
2016-05-05T10:45:14.493Z,24
2016-05-05T10:46:14.465Z,24
2016-05-05T10:47:14.296Z,24
2016-05-05T10:48:14.862Z,24
2016-05-05T10:49:14.645Z,24
2016-05-05T10:50:14.539Z,28
2016-05-05T10:51:14.431Z,24
2016-05-05T10:52:14.637Z,28
2016-05-05T10:53:14.640Z,24
2016-05-05T10:54:14.627Z,24
2016-05-05T10:55:14.708Z,24
2016-05-05T10:56:14.383Z,24
2016-05-05T10:57:15.026Z,28
2016-05-05T10:58:14.591Z,28
2016-05-05T10:59:14.657Z,24
2016-05-05T11:00:14.688Z,24
2016-05-05T11:01:14.905Z,24
2016-05-05T11:02:14.749Z,24
2016-05-05T11:03:14.623Z,24
2016-05-05T11:04:14.603Z,28
2016-05-05T11:05:14.622Z,24
2016-05-05T11:06:14.624Z,24
2016-05-05T11:07:14.674Z,24
2016-05-05T11:08:14.848Z,24
2016-05-05T11:09:14.767Z,28
2016-05-05T11:10:14.353Z,28
2016-05-05T11:11:14.845Z,28
2016-05-05T11:12:14.744Z,24
2016-05-05T11:13:14.908Z,24
2016-05-05T11:14:14.491Z,24
2016-05-05T11:15:15.043Z,24
2016-05-05T11:16:14.891Z,24
2016-05-05T11:17:15.036Z,24
2016-05-05T11:18:14.822Z,24
2016-05-05T11:19:14.827Z,24
2016-05-05T11:20:14.673Z,24
2016-05-05T11:21:14.630Z,24
2016-05-05T11:22:14.602Z,24
2016-05-05T11:23:14.868Z,24
2016-05-05T11:24:14.809Z,20
2016-05-05T11:25:14.905Z,24
2016-05-05T11:26:14.846Z,20
2016-05-05T11:27:14.599Z,24
2016-05-05T11:28:14.992Z,28
2016-05-05T11:29:14.777Z,24
2016-05-05T11:30:14.998Z,24
2016-05-05T11:31:14.985Z,28
2016-05-05T11:32:14.973Z,24
2016-05-05T11:33:14.961Z,24
2016-05-05T11:34:15.166Z,24
2016-05-05T11:35:14.574Z,28
2016-05-05T11:36:14.749Z,24
2016-05-05T11:37:14.955Z,24
2016-05-05T11:38:14.801Z,24
2016-05-05T11:39:14.757Z,24
2016-05-05T11:40:14.355Z,24
2016-05-05T11:41:14.372Z,24
2016-05-05T11:42:14.953Z,24
2016-05-05T11:43:14.987Z,28
2016-05-05T11:44:14.724Z,24
2016-05-05T11:45:14.945Z,28
2016-05-05T11:46:14.511Z,24
2016-05-05T11:47:14.919Z,28
2016-05-05T11:48:14.907Z,28
2016-05-05T11:49:14.753Z,24
2016-05-05T11:50:14.506Z,28
2016-05-05T11:51:14.899Z,24
2016-05-05T11:52:14.526Z,28
2016-05-05T11:53:14.904Z,24
2016-05-05T11:54:14.407Z,28
2016-05-05T11:55:14.832Z,28
2016-05-05T11:56:14.694Z,24
2016-05-05T11:57:14.681Z,28
2016-05-05T11:58:14.871Z,28
2016-05-05T11:59:15.092Z,28
2016-05-05T12:00:14.720Z,24
2016-05-05T12:01:14.878Z,28
2016-05-05T12:02:14.881Z,28
2016-05-05T12:03:15.072Z,28
2016-05-05T12:04:14.465Z,28
2016-05-05T12:05:14.672Z,28
2016-05-05T12:06:14.299Z,24
2016-05-05T12:07:14.723Z,28
2016-05-05T12:08:14.850Z,28
2016-05-05T12:09:14.463Z,28
2016-05-05T12:10:14.528Z,28
2016-05-05T12:11:15.047Z,28
2016-05-05T12:12:14.846Z,28
2016-05-05T12:13:14.833Z,24
2016-05-05T12:14:14.257Z,28
2016-05-05T12:15:14.479Z,24
2016-05-05T12:16:14.621Z,28
2016-05-05T12:17:14.813Z,28
2016-05-05T12:18:14.457Z,28
2016-05-05T12:19:14.521Z,28
2016-05-05T12:20:15.008Z,28
2016-05-05T12:21:14.620Z,28
2016-05-05T12:22:14.670Z,28
2016-05-05T12:23:14.594Z,28
2016-05-05T12:24:14.800Z,28
2016-05-05T12:25:14.257Z,28
2016-05-05T12:26:14.587Z,28
2016-05-05T12:27:14.590Z,28
2016-05-05T12:28:14.592Z,28
2016-05-05T12:29:14.798Z,28
2016-05-05T12:30:14.581Z,28
2016-05-05T12:31:14.429Z,24
2016-05-05T12:32:14.994Z,28
2016-05-05T12:33:14.371Z,28
2016-05-05T12:34:14.389Z,32
2016-05-05T12:35:14.783Z,28
2016-05-05T12:36:14.410Z,24
2016-05-05T12:37:14.616Z,28
2016-05-05T12:38:14.588Z,32
2016-05-05T12:39:14.559Z,28
2016-05-05T12:40:15.186Z,28
2016-05-05T12:41:14.564Z,28
2016-05-05T12:42:14.396Z,32
2016-05-05T12:43:14.179Z,28
2016-05-05T12:44:14.401Z,28
2016-05-05T12:45:14.560Z,28
2016-05-05T12:46:14.594Z,28
2016-05-05T12:47:14.955Z,28
2016-05-05T12:48:14.365Z,28
2016-05-05T12:49:14.540Z,28
2016-05-05T12:50:14.557Z,32
2016-05-05T12:51:14.560Z,32
2016-05-05T12:52:14.937Z,28
2016-05-05T12:53:14.393Z,32
2016-05-05T12:54:14.521Z,28
2016-05-05T12:55:14.431Z,28
2016-05-05T12:56:14.168Z,28
2016-05-05T12:57:14.764Z,28
2016-05-05T12:58:14.313Z,28
2016-05-05T12:59:14.722Z,28
2016-05-05T13:00:14.710Z,28
2016-05-05T13:01:14.775Z,28
2016-05-05T13:02:14.543Z,28
2016-05-05T13:03:14.577Z,32
2016-05-05T13:04:14.767Z,28
2016-05-05T13:05:14.504Z,28
2016-05-05T13:06:14.178Z,28
2016-05-05T13:07:14.119Z,28
2016-05-05T13:08:14.512Z,28
2016-05-05T13:09:14.500Z,28
2016-05-05T13:10:14.721Z,28
2016-05-05T13:11:14.692Z,28
2016-05-05T13:12:14.289Z,28
2016-05-05T13:13:14.494Z,28
2016-05-05T13:14:14.700Z,28
2016-05-05T13:15:14.687Z,28
2016-05-05T13:16:14.283Z,28
2016-05-05T13:17:14.536Z,28
2016-05-05T13:18:14.289Z,28
2016-05-05T13:19:14.885Z,28
2016-05-05T13:20:14.685Z,28
2016-05-05T13:21:14.563Z,28
2016-05-05T13:22:14.144Z,24
2016-05-05T13:23:14.318Z,24
2016-05-05T13:24:14.712Z,24
2016-05-05T13:25:15.043Z,28
2016-05-05T13:26:14.107Z,24
2016-05-05T13:27:14.673Z,24
2016-05-05T13:28:14.301Z,28
2016-05-05T13:29:14.053Z,28
2016-05-05T13:30:14.462Z,28
2016-05-05T13:31:14.871Z,28
2016-05-05T13:32:14.498Z,28
2016-05-05T13:33:14.658Z,28
2016-05-05T13:34:14.661Z,28
2016-05-05T13:35:14.507Z,28
2016-05-05T13:36:14.869Z,28
2016-05-05T13:37:14.449Z,28
2016-05-05T13:38:14.234Z,28
2016-05-05T13:39:14.861Z,28
2016-05-05T13:40:14.895Z,28
2016-05-05T13:41:14.648Z,28
2016-05-05T13:42:14.838Z,28
2016-05-05T13:43:14.841Z,28
2016-05-05T13:44:14.078Z,28
2016-05-05T13:45:14.424Z,28
2016-05-05T13:46:14.849Z,28
2016-05-05T13:47:14.430Z,28
2016-05-05T13:48:14.277Z,28
2016-05-05T13:49:14.482Z,28
2016-05-05T13:50:14.515Z,28
2016-05-05T13:51:14.472Z,28
2016-05-05T13:52:14.412Z,28
2016-05-05T13:53:14.618Z,28
2016-05-05T13:54:14.215Z,24
2016-05-05T13:55:14.873Z,28
2016-05-05T13:56:14.610Z,28
2016-05-05T13:57:14.207Z,28
2016-05-05T13:58:14.256Z,28
2016-05-05T13:59:14.603Z,32
2016-05-05T14:00:14.449Z,28
2016-05-05T14:01:14.608Z,28
2016-05-05T14:02:14.611Z,32
2016-05-05T14:03:14.191Z,28
2016-05-05T14:04:14.397Z,32
2016-05-05T14:05:14.244Z,28
2016-05-05T14:06:14.231Z,28
2016-05-05T14:07:14.186Z,28
2016-05-05T14:08:14.611Z,28
2016-05-05T14:09:14.426Z,24
2016-05-05T14:10:14.445Z,24
2016-05-05T14:11:14.588Z,24
2016-05-05T14:12:14.591Z,24
2016-05-05T14:13:14.578Z,24
2016-05-05T14:14:14.581Z,28
2016-05-05T14:15:14.036Z,28
2016-05-05T14:16:14.180Z,20
2016-05-05T14:17:14.213Z,28
2016-05-05T14:18:14.576Z,32
2016-05-05T14:19:14.421Z,32
2016-05-05T14:20:14.580Z,32
2016-05-05T14:21:14.163Z,32
2016-05-05T14:22:14.368Z,32
2016-05-05T14:23:14.370Z,36
2016-05-05T14:24:14.170Z,36
2016-05-05T14:25:15.516Z,36
2016-05-05T14:26:14.004Z,40
2016-05-05T14:27:14.553Z,36
2016-05-05T14:28:14.212Z,36
2016-05-05T14:29:14.137Z,36